GW2464 Weather Reports


Display with metric or nautical units.
time (UTC)temp
F
wind
direction
speed
MPH
gust
MPH
rain 1hr
in
rain 24hr
in
rain mn
in
humidity
%
barometer
mb
20240530093640 48 54 0.0 1.0 0.00 0.10 0.10 99 1017.6
20240530093139 48 284 1.0 1.0 0.00 0.10 0.10 99 1017.3
20240530092637 48 152 1.0 1.0 0.00 0.10 0.10 99 1017.3
20240530092136 48 94 0.0 0.0 0.00 0.10 0.10 99 1017.1
20240530091635 48 7 0.0 0.0 0.00 0.10 0.10 99 1017.4
20240530091133 48 297 0.0 0.0 0.00 0.10 0.10 99 1017.4
20240530090631 48 5 0.0 0.0 0.00 0.10 0.10 99 1017.1
20240530090130 48 12 0.0 0.0 0.00 0.10 0.10 99 1017.1
20240530085629 48 3 0.0 0.0 0.00 0.10 0.10 99 1017.0
20240530085129 48 338 0.0 1.0 0.00 0.10 0.10 99 1017.1
20240530084627 48 29 1.0 1.0 0.00 0.10 0.10 99 1017.1
20240530084125 48 7 0.0 1.0 0.00 0.10 0.10 99 1016.9
20240530083624 48 12 0.0 0.0 0.00 0.10 0.10 99 1017.0
20240530083122 48 15 0.0 0.0 0.00 0.10 0.10 99 1017.3
20240530082620 49 19 0.0 1.0 0.00 0.10 0.10 99 1017.0
20240530082120 48 215 1.0 1.0 0.00 0.10 0.10 99 1017.0
20240530081619 48 19 1.0 2.0 0.00 0.10 0.10 99 1016.9
20240530081117 49 27 1.0 1.0 0.00 0.10 0.10 99 1016.8
20240530080616 49 347 0.0 0.0 0.00 0.10 0.10 99 1016.8
20240530080115 49 290 1.0 1.0 0.00 0.10 0.10 99 1016.9
20240530075613 49 335 0.0 0.0 0.00 0.10 0.10 99 1016.7
20240530075111 49 350 0.0 1.0 0.00 0.10 0.10 99 1016.9
20240530074611 49 4 0.0 1.0 0.00 0.10 0.10 99 1016.8
20240530074110 50 1 0.0 1.0 0.00 0.10 0.10 99 1016.9
20240530073609 50 333 1.0 1.0 0.00 0.10 0.10 99 1016.8
20240530073107 50 325 0.0 1.0 0.00 0.10 0.10 99 1016.9
20240530072605 49 4 0.0 0.0 0.00 0.10 0.10 99 1016.8
20240530072105 50 353 0.0 0.0 0.00 0.10 0.10 99 1016.8
20240530071603 50 354 0.0 0.0 0.00 0.10 0.10 99 1016.5
20240530071103 50 338 0.0 1.0 0.00 0.10 0.10 99 1016.8
20240530070602 50 350 0.0 0.0 0.00 0.10 0.10 99 1016.7
20240530070101 50 348 0.0 0.0 0.00 0.10 0.10 99 1016.8
20240530065600 50 8 0.0 0.0 0.07 0.10 0.10 99 1016.6
20240530065100 50 2 0.0 0.0 0.07 0.10 0.10 99 1016.5
20240530064559 50 8 0.0 0.0 0.00 0.09 0.09 99 1016.7
20240530064058 50 62 0.0 1.0 0.04 0.09 0.09 99 1016.7
20240530063556 50 3 0.0 1.0 0.04 0.09 0.09 99 1016.6
20240530063055 50 4 0.0 0.0 0.00 0.08 0.08 99 1016.6
20240530062554 50 314 1.0 1.0 0.00 0.08 0.08 99 1016.4
20240530062052 50 16 0.0 0.0 0.00 0.08 0.08 99 1016.5
20240530061552 50 26 0.0 0.0 0.00 0.08 0.08 99 1016.5
20240530061050 50 15 0.0 0.0 0.00 0.08 0.08 99 1016.7
20240530060549 50 5 0.0 0.0 0.07 0.08 0.08 99 1016.7
20240530060049 50 355 0.0 0.0 0.07 0.08 0.08 99 1016.4
20240530055548 51 347 0.0 0.0 0.00 0.07 0.07 99 1016.4
20240530055046 51 333 0.0 1.0 0.00 0.07 0.07 99 1016.6
20240530054545 51 335 0.0 1.0 0.04 0.07 0.07 99 1016.5
20240530054045 51 336 0.0 0.0 0.04 0.07 0.07 99 1016.5
20240530053543 51 9 0.0 0.0 0.07 0.06 0.06 99 1016.6
20240530053041 51 343 0.0 0.0 0.11 0.06 0.06 99 1016.7
20240530052540 52 354 0.0 0.0 0.04 0.05 0.05 99 1016.7
20240530052040 51 352 0.0 0.0 0.00 0.04 0.04 99 1016.7
20240530051539 51 321 1.0 1.0 0.07 0.04 0.04 99 1016.7
20240530051038 51 6 0.0 0.0 0.07 0.04 0.04 99 1016.6
20240530050536 52 4 0.0 0.0 0.00 0.03 0.03 99 1016.4
20240530050035 52 355 0.0 0.0 0.00 0.03 0.03 99 1016.4
20240530045534 52 37 0.0 1.0 0.00 0.03 0.03 99 1016.6
20240530045034 52 15 0.0 0.0 0.07 0.03 0.03 99 1016.6
20240530044534 52 42 0.0 0.0 0.07 0.03 0.03 99 1016.6
20240530044033 52 57 1.0 1.0 0.00 0.02 0.02 99 1016.6
20240530043531 53 12 0.0 0.0 0.04 0.02 0.02 99 1016.6
20240530043030 53 349 0.0 0.0 0.04 0.02 0.02 99 1016.5
20240530042529 53 15 0.0 0.0 0.00 0.01 0.01 99 1016.6
20240530042028 52 13 0.0 0.0 0.07 0.01 0.01 99 1016.7
20240530041527 52 73 0.0 1.0 0.07 0.01 0.01 99 1016.8
20240530041027 53 39 0.0 1.0 0.00 0.00 0.00 99 1016.6
20240530040525 53 8 1.0 1.0 0.00 0.00 0.00 98 1016.5
20240530040024 53 43 0.0 1.0 0.04 0.05 0.05 98 1016.7
20240530035522 53 22 0.0 0.0 0.04 0.05 0.05 98 1016.5
20240530035022 53 5 0.0 0.0 0.07 0.05 0.05 98 1016.5
20240530034520 53 22 0.0 0.0 0.07 0.05 0.05 98 1016.5
20240530034019 54 35 0.0 0.0 0.00 0.03 0.03 99 1016.6
20240530033519 54 35 0.0 0.0 0.00 0.03 0.03 98 1016.4
20240530033017 54 281 1.0 1.0 0.00 0.03 0.03 98 1016.4
20240530032515 54 24 0.0 0.0 0.04 0.03 0.03 98 1016.5
20240530032014 54 13 0.0 0.0 0.04 0.03 0.03 97 1016.2
20240530031514 55 74 1.0 1.0 0.00 0.03 0.03 97 1016.4
20240530031012 55 15 0.0 0.0 0.00 0.03 0.03 97 1016.1
20240530030511 55 326 1.0 1.0 0.00 0.03 0.03 96 1016.2
20240530030010 55 2 0.0 0.0 0.00 0.03 0.03 96 1016.1
20240530025508 55 348 0.0 0.0 0.00 0.03 0.03 95 1016.3
20240530025007 55 24 0.0 0.0 0.00 0.03 0.03 95 1016.2
20240530024506 55 15 0.0 1.0 0.00 0.03 0.03 95 1016.2
20240530024005 55 332 0.0 0.0 0.00 0.03 0.03 95 1016.3
20240530023505 55 19 0.0 0.0 0.00 0.03 0.03 95 1016.2
20240530023005 55 22 0.0 1.0 0.00 0.03 0.03 95 1016.2
20240530022505 55 15 1.0 1.0 0.00 0.03 0.03 95 1016.2
20240530022004 55 17 0.0 1.0 0.00 0.03 0.03 95 1016.3
20240530021503 55 8 1.0 1.0 0.00 0.03 0.03 95 1016.0
20240530021003 55 14 0.0 0.0 0.00 0.03 0.03 94 1016.1
20240530020501 56 4 0.0 0.0 0.00 0.03 0.03 93 1016.1
20240530015959 56 8 0.0 0.0 0.00 0.03 0.03 94 1016.3
20240530015458 55 15 0.0 1.0 0.00 0.03 0.03 94 1016.1
20240530014956 55 12 0.0 1.0 0.00 0.03 0.03 95 1016.2
20240530014456 56 359 0.0 1.0 0.00 0.03 0.03 95 1016.1
20240530013955 56 18 0.0 0.0 0.00 0.03 0.03 94 1016.3
20240530013454 56 343 0.0 0.0 0.00 0.03 0.03 94 1016.1
20240530012952 56 343 0.0 0.0 0.00 0.03 0.03 93 1016.3
20240530012450 56 338 0.0 1.0 0.00 0.03 0.03 93 1016.3
20240530011949 56 9 0.0 0.0 0.00 0.03 0.03 92 1016.5
20240530011422 56 0 0.0 0.0 0.00 0.03 0.03 93 1016.5
20240530010920 56 353 0.0 0.0 0.00 0.03 0.03 93 1016.3
20240530010419 56 345 0.0 1.0 0.00 0.03 0.03 94 1016.3
20240530005917 56 286 1.0 1.0 0.00 0.03 0.03 94 1016.4
20240530005414 56 6 0.0 0.0 0.00 0.03 0.03 95 1016.1
20240530004903 56 351 0.0 0.0 0.00 0.03 0.03 95 1016.1
20240530004403 57 7 0.0 0.0 0.00 0.03 0.03 95 1016.3
20240530003903 57 11 0.0 0.0 0.00 0.03 0.03 94 1016.2
20240530003402 58 14 0.0 0.0 0.00 0.03 0.03 93 1015.9
20240530002901 57 31 0.0 0.0 0.00 0.03 0.03 92 1015.9
20240530002401 58 18 0.0 0.0 0.00 0.03 0.03 92 1016.1
20240530001901 57 30 0.0 0.0 0.00 0.03 0.03 92 1016.0
20240530001359 57 21 0.0 0.0 0.00 0.03 0.03 94 1015.8
20240530000858 58 62 1.0 1.0 0.00 0.03 0.03 95 1016.0
20240530000357 58 335 1.0 1.0 0.00 0.03 0.03 94 1016.2
20240529235857 58 210 1.0 2.0 0.00 0.03 0.03 92 1016.0
20240529235355 59 282 1.0 1.0 0.00 0.03 0.03 90 1015.5
20240529234854 59 9 1.0 1.0 0.00 0.03 0.03 89 1015.6
20240529234354 59 24 0.0 0.0 0.00 0.03 0.03 89 1015.5
20240529233851 59 9 0.0 0.0 0.00 0.03 0.03 91 1015.7
20240529233350 59 31 0.0 0.0 0.00 0.03 0.03 91 1015.7
20240529232848 59 18 0.0 0.0 0.00 0.03 0.03 92 1015.8
20240529232347 60 22 0.0 0.0 0.00 0.03 0.03 92 1015.8
20240529231846 60 29 0.0 0.0 0.00 0.03 0.03 90 1015.8
20240529231345 60 26 0.0 0.0 0.00 0.03 0.03 91 1015.8
20240529230844 60 0 0.0 0.0 0.00 0.03 0.03 90 1015.9
20240529230342 60 358 0.0 0.0 0.00 0.03 0.03 89 1015.9
20240529225840 60 6 0.0 1.0 0.00 0.03 0.03 89 1015.9
20240529225336 60 10 0.0 0.0 0.00 0.03 0.03 87 1015.9
20240529224835 60 7 0.0 0.0 0.00 0.03 0.03 87 1015.9
20240529224335 60 24 0.0 1.0 0.00 0.03 0.03 86 1015.8
20240529223834 61 348 2.0 2.0 0.00 0.03 0.03 88 1015.8
20240529223333 61 348 2.0 2.0 0.00 0.03 0.03 87 1016.0
20240529222833 62 142 0.0 1.0 0.00 0.03 0.03 87 1015.8
20240529222332 62 13 0.0 0.0 0.00 0.03 0.03 87 1015.9
20240529221832 62 9 0.0 0.0 0.00 0.03 0.03 86 1015.9
20240529221332 63 0 0.0 0.0 0.00 0.03 0.03 85 1015.8
20240529220831 63 38 0.0 0.0 0.00 0.03 0.03 84 1015.8
20240529220329 63 17 0.0 0.0 0.00 0.03 0.03 83 1016.0
20240529215829 64 37 0.0 0.0 0.00 0.03 0.03 82 1015.9
20240529215328 64 50 0.0 1.0 0.00 0.03 0.03 82 1016.0
20240529214827 64 16 0.0 0.0 0.00 0.03 0.03 82 1015.8
20240529214325 64 19 0.0 0.0 0.00 0.03 0.03 80 1015.8
20240529213824 63 14 0.0 0.0 0.00 0.03 0.03 78 1015.8
20240529213323 63 2 0.0 1.0 0.00 0.03 0.03 78 1016.0
20240529212822 63 1 0.0 0.0 0.00 0.03 0.03 79 1015.8
20240529212319 63 1 0.0 0.0 0.00 0.03 0.03 79 1015.8
20240529211819 63 3 1.0 1.0 0.00 0.03 0.03 80 1015.7
20240529211318 63 11 1.0 1.0 0.00 0.03 0.03 80 1015.7
20240529210816 63 4 1.0 1.0 0.00 0.03 0.03 80 1015.6
20240529210314 63 18 4.0 5.0 0.00 0.03 0.03 77 1015.6
20240529205813 63 6 0.0 0.0 0.00 0.03 0.03 79 1015.8
20240529205313 64 2 1.0 2.0 0.00 0.03 0.03 83 1015.6
20240529204811 65 358 3.0 3.0 0.00 0.03 0.03 77 1015.6
20240529204311 67 8 0.0 1.0 0.00 0.03 0.03 81 1015.7
20240529203810 66 6 0.0 1.0 0.00 0.03 0.03 77 1015.5
20240529203307 66 0 0.0 0.0 0.00 0.03 0.03 79 1015.3
20240529202806 65 9 0.0 0.0 0.00 0.03 0.03 77 1015.6
20240529202305 64 312 1.0 1.0 0.00 0.03 0.03 82 1015.7
20240529201803 62 10 0.0 0.0 0.00 0.03 0.03 84 1015.8
20240529201302 62 6 0.0 0.0 0.00 0.03 0.03 84 1015.8
20240529200729 61 8 1.0 1.0 0.00 0.03 0.03 85 1015.9
20240529200228 62 1 1.0 1.0 0.00 0.03 0.03 85 1015.8
20240529195727 62 6 0.0 1.0 0.00 0.03 0.03 84 1015.8
20240529195225 62 18 0.0 0.0 0.00 0.03 0.03 83 1015.8
20240529194723 62 20 0.0 0.0 0.00 0.03 0.03 81 1016.0
20240529194222 62 12 0.0 0.0 0.00 0.03 0.03 79 1015.8
20240529193721 63 279 0.0 0.0 0.00 0.03 0.03 80 1015.5
20240529193218 64 13 0.0 0.0 0.00 0.03 0.03 78 1015.7
20240529192717 64 25 0.0 0.0 0.00 0.03 0.03 78 1015.8
20240529192215 65 227 1.0 1.0 0.00 0.03 0.03 78 1015.7
20240529191714 66 4 2.0 2.0 0.00 0.03 0.03 72 1016.0
20240529191215 66 9 1.0 1.0 0.00 0.03 0.03 74 1015.9
20240529190714 66 16 0.0 1.0 0.00 0.03 0.03 82 1015.7
20240529190215 67 23 3.0 3.0 0.00 0.03 0.03 75 1015.8
20240529185714 66 65 0.0 1.0 0.00 0.03 0.03 76 1016.0
20240529185212 67 16 0.0 0.0 0.00 0.03 0.03 77 1016.0
20240529184710 66 26 1.0 1.0 0.00 0.03 0.03 72 1015.8
20240529184211 65 350 1.0 1.0 0.00 0.03 0.03 74 1016.0
20240529183710 65 6 0.0 1.0 0.00 0.03 0.03 76 1015.9
20240529183210 64 337 2.0 2.0 0.00 0.03 0.03 79 1016.0
20240529182709 63 354 1.0 1.0 0.00 0.03 0.03 83 1016.0
20240529182208 63 342 0.0 1.0 0.00 0.03 0.03 85 1016.3
20240529181706 63 288 0.0 0.0 0.00 0.03 0.03 89 1016.5
20240529181205 61 2 0.0 1.0 0.00 0.03 0.03 91 1016.5
20240529180704 61 358 1.0 1.0 0.00 0.03 0.03 93 1016.6
20240529180203 62 1 0.0 0.0 0.00 0.03 0.03 95 1016.5
20240529175701 59 33 0.0 0.0 0.00 0.03 0.03 94 1016.7
20240529175201 58 343 1.0 1.0 0.07 0.03 0.03 92 1016.8
20240529174701 59 15 1.0 2.0 0.18 0.03 0.03 92 1016.8
20240529174202 62 2 1.0 2.0 0.11 0.02 0.02 86 1016.8
20240529173701 65 28 3.0 5.0 0.00 0.00 0.00 79 1016.8
20240529173159 68 1 1.0 1.0 0.00 0.00 0.00 70 1016.9
20240529172659 67 83 0.0 1.0 0.00 0.00 0.00 69 1016.9
20240529172148 65 143 2.0 2.0 0.00 0.00 0.00 74 1016.8
20240529171647 65 9 1.0 1.0 0.00 0.00 0.00 80 1016.7
20240529171145 64 19 0.0 0.0 0.00 0.00 0.00 79 1016.9
20240529170643 63 354 2.0 3.0 0.00 0.00 0.00 75 1016.8
20240529170143 65 4 1.0 1.0 0.00 0.00 0.00 78 1017.0
20240529165642 65 353 2.0 2.0 0.00 0.00 0.00 73 1016.9
20240529165141 65 357 0.0 0.0 0.00 0.00 0.00 73 1017.1
20240529164640 64 52 0.0 0.0 0.00 0.00 0.00 74 1017.0
20240529164139 64 309 1.0 1.0 0.00 0.00 0.00 76 1017.1
20240529163638 64 7 0.0 0.0 0.00 0.00 0.00 78 1017.4
20240529163137 65 342 0.0 0.0 0.00 0.00 0.00 80 1017.4
20240529162635 64 4 0.0 1.0 0.00 0.00 0.00 77 1017.1
20240529162134 63 353 0.0 0.0 0.00 0.00 0.00 78 1017.6
20240529161632 63 348 2.0 2.0 0.00 0.00 0.00 79 1017.5
20240529161132 64 8 0.0 0.0 0.00 0.00 0.00 81 1017.4
20240529160631 63 23 2.0 2.0 0.00 0.00 0.00 79 1017.5
20240529160131 62 14 0.0 1.0 0.00 0.00 0.00 85 1017.6
20240529155629 61 8 1.0 1.0 0.00 0.00 0.00 83 1017.5
20240529155128 62 8 1.0 1.0 0.00 0.00 0.00 82 1017.4
20240529154627 64 326 1.0 1.0 0.00 0.00 0.00 81 1017.6
20240529154126 64 332 0.0 1.0 0.00 0.00 0.00 81 1017.4
20240529153624 62 3 1.0 2.0 0.00 0.00 0.00 80 1017.4
20240529153124 61 307 1.0 1.0 0.00 0.00 0.00 86 1017.3
20240529152623 61 0 0.0 0.0 0.00 0.00 0.00 86 1017.6
20240529152121 60 270 3.0 3.0 0.00 0.00 0.00 84 1017.6
20240529151620 60 21 2.0 2.0 0.00 0.00 0.00 84 1017.7
20240529151117 59 0 2.0 2.0 0.00 0.00 0.00 86 1017.6
20240529150615 59 11 0.0 1.0 0.00 0.00 0.00 89 1017.5
20240529150115 59 341 1.0 1.0 0.00 0.00 0.00 88 1017.4
20240529145613 59 4 0.0 1.0 0.00 0.00 0.00 87 1017.6
20240529145113 59 352 1.0 2.0 0.00 0.00 0.00 88 1017.4
20240529144611 59 0 0.0 0.0 0.00 0.00 0.00 90 1017.3
20240529144110 59 237 2.0 2.0 0.00 0.00 0.00 91 1017.5
20240529143609 59 244 2.0 2.0 0.00 0.00 0.00 91 1016.8
20240529143107 58 341 2.0 2.0 0.00 0.00 0.00 92 1017.0
20240529142605 59 16 0.0 0.0 0.00 0.00 0.00 92 1017.1
20240529142103 58 22 0.0 0.0 0.00 0.00 0.00 92 1016.8
20240529141602 58 298 1.0 1.0 0.00 0.00 0.00 91 1016.8
20240529141101 58 8 1.0 1.0 0.00 0.00 0.00 91 1016.8
20240529140600 58 349 2.0 2.0 0.00 0.00 0.00 93 1016.9
20240529140057 58 0 0.0 1.0 0.00 0.00 0.00 92 1016.9
20240529135554 57 356 1.0 1.0 0.00 0.00 0.00 90 1016.8
20240529135052 57 353 3.0 3.0 0.00 0.00 0.00 93 1017.0
20240529134550 57 10 0.0 0.0 0.00 0.00 0.00 93 1016.9
20240529134050 57 5 0.0 0.0 0.00 0.00 0.00 94 1016.8
20240529133549 57 7 0.0 0.0 0.00 0.00 0.00 93 1016.7
20240529133048 57 355 0.0 1.0 0.00 0.00 0.00 93 1016.7
20240529132547 56 349 5.0 7.0 0.00 0.00 0.00 93 1016.6
20240529132046 56 36 1.0 1.0 0.00 0.00 0.00 96 1016.8
20240529131545 56 359 0.0 1.0 0.00 0.00 0.00 97 1016.8
20240529131043 54 12 2.0 3.0 0.00 0.00 0.00 97 1016.9
20240529130543 55 9 0.0 1.0 0.00 0.00 0.00 99 1016.6
20240529130041 55 10 1.0 1.0 0.00 0.00 0.00 99 1016.7
20240529125540 55 325 1.0 1.0 0.00 0.00 0.00 99 1016.9
20240529125040 54 358 1.0 3.0 0.00 0.00 0.00 99 1016.8
20240529124538 55 344 0.0 1.0 0.00 0.00 0.00 99 1016.8
20240529124036 54 69 0.0 0.0 0.00 0.00 0.00 99 1016.8
20240529123534 54 197 1.0 1.0 0.00 0.00 0.00 99 1016.7
20240529123032 54 326 0.0 1.0 0.00 0.00 0.00 99 1016.7
20240529122531 54 22 0.0 0.0 0.00 0.00 0.00 99 1016.6
20240529122030 53 0 0.0 1.0 0.00 0.00 0.00 99 1016.7
20240529121529 53 0 0.0 0.0 0.00 0.00 0.00 99 1016.8
20240529121028 53 2 0.0 0.0 0.00 0.00 0.00 99 1016.6
20240529120526 53 10 0.0 0.0 0.00 0.00 0.00 99 1016.6
20240529120026 53 9 0.0 0.0 0.00 0.00 0.00 99 1016.3
20240529115524 53 343 2.0 2.0 0.00 0.00 0.00 99 1016.4
20240529115024 54 247 1.0 2.0 0.00 0.00 0.00 99 1016.1
20240529114523 53 8 0.0 0.0 0.00 0.00 0.00 99 1016.3
20240529114022 53 1 0.0 0.0 0.00 0.00 0.00 99 1016.1
20240529113522 53 6 0.0 0.0 0.00 0.00 0.00 99 1016.2
20240529113020 53 357 0.0 0.0 0.00 0.00 0.00 99 1016.3
20240529112519 53 333 1.0 1.0 0.00 0.00 0.00 99 1016.2
20240529112018 53 5 0.0 0.0 0.00 0.00 0.00 99 1016.1
20240529111517 53 4 0.0 0.0 0.00 0.00 0.00 99 1016.1
20240529111016 53 2 0.0 0.0 0.00 0.00 0.00 99 1016.0
20240529110516 53 9 0.0 0.0 0.00 0.00 0.00 99 1015.7
20240529110016 53 4 0.0 0.0 0.00 0.00 0.00 99 1015.6
20240529105515 53 8 0.0 0.0 0.00 0.00 0.00 99 1015.8
20240529105014 52 8 0.0 0.0 0.00 0.00 0.00 99 1015.7
20240529104513 52 1 0.0 0.0 0.00 0.00 0.00 99 1015.7
20240529104011 52 5 0.0 0.0 0.00 0.00 0.00 99 1015.8
20240529103510 52 113 1.0 1.0 0.00 0.00 0.00 99 1015.6
20240529103009 51 20 0.0 0.0 0.00 0.00 0.00 99 1015.4
20240529102506 51 10 0.0 0.0 0.00 0.00 0.00 99 1015.5
20240529102005 51 13 0.0 0.0 0.00 0.00 0.00 99 1015.4
20240529101505 51 4 0.0 0.0 0.00 0.00 0.00 99 1015.6
20240529101003 51 28 0.0 0.0 0.00 0.00 0.00 99 1015.2
20240529100503 51 6 1.0 1.0 0.00 0.00 0.00 99 1015.5
20240529100002 50 9 0.0 0.0 0.00 0.00 0.00 99 1015.3
20240529095501 51 13 0.0 0.0 0.00 0.00 0.00 99 1015.3
20240529095000 51 351 0.0 0.0 0.00 0.00 0.00 99 1015.2
20240529094500 51 11 0.0 0.0 0.00 0.00 0.00 99 1015.3